Weather at Georgetown-Scott County Regional Airport

Public forecast

Using degrees Fahrenheit for public forecast. Weather courtesy of forecast.io.

Closest aviation weather report (METAR) to Georgetown-Scott County Regional Airport

Closest report is Blue Grass Airport, 14.4 nm (26.6 km) SW. Retrieved 2021/07/30 12:54 UTC (18 minutes ago):

KLEX 301254Z 36005KT 8SM OVC012 24/22 A3003 RMK AO2 SLP157 T02390217

Closest aviation forecast (TAF) to Georgetown-Scott County Regional Airport

Closest forecast is Blue Grass Airport, 14.4 nm (26.6 km) SW. Retrieved 2021/07/30 12:24 UTC (48 minutes ago):

TAF KLEX 301120Z 3012/3112 VRB03KT 4SM BR BKN014 FM301300 01005KT P6SM SCT019 BKN250 FM301500 01009KT P6SM SCT040 FM310000 04004KT P6SM SCT250